| time (UTC) | temp C | wind direction | speed KPH | gust KPH | rain 1hr cm | rain 24hr cm | rain mn cm | humidity % | barometer mb |
| 20260905211632 | 13 | 299 | 12.9 | 22.5 | 0.00 | 0.89 | 0.84 | 99 | |
| 20260905210612 | 13 | 299 | 6.4 | 11.3 | 0.00 | 1.07 | 0.84 | 99 | |
| 20260905205612 | 13 | 270 | 8.0 | 6.4 | 0.00 | 1.09 | 0.84 | 99 | |
| 20260905204552 | 13 | 264 | 4.8 | 8.0 | 0.00 | 1.12 | 0.84 | 99 | |
| 20260905203552 | 13 | 238 | 8.0 | 12.9 | 0.00 | 1.12 | 0.84 | 99 | |
| 20260905202532 | 13 | 318 | 8.0 | 12.9 | 0.00 | 1.12 | 0.84 | 99 | |
| 20260905201532 | 13 | 270 | 3.2 | 9.7 | 0.00 | 1.12 | 0.84 | 99 | |
| 20260905200532 | 13 | 273 | 1.6 | 4.8 | 0.00 | 1.12 | 0.84 | 99 | |
| 20260905195512 | 13 | 270 | 1.6 | 6.4 | 0.00 | 1.12 | 0.84 | 99 | |
| 20260905194512 | 13 | 263 | 3.2 | 6.4 | 0.00 | 1.12 | 0.84 | 99 | |
| 20260905193452 | 13 | 194 | 6.4 | 8.0 | 0.00 | 1.12 | 0.84 | 99 | |
| 20260905192452 | 13 | 271 | 0.0 | 0.0 | 0.00 | 1.12 | 0.84 | 99 | |
| 20260905191452 | 13 | 273 | 3.2 | 8.0 | 0.00 | 1.12 | 0.84 | 99 | |
| 20260905190452 | 13 | 0 | 0.0 | 1.6 | 0.00 | 1.12 | 0.84 | 99 | |
| 20260905185452 | 13 | 260 | 6.4 | 8.0 | 0.00 | 1.12 | 0.84 | 99 | |
| 20260905184452 | 13 | 245 | 6.4 | 6.4 | 0.00 | 1.12 | 0.84 | 99 | |
| 20260905183432 | 13 | 245 | 12.9 | 14.5 | 0.00 | 1.12 | 0.84 | 99 | |
| 20260905182432 | 13 | 257 | 3.2 | 1.6 | 0.00 | 1.12 | 0.84 | 99 | |
| 20260905181412 | 13 | 259 | 8.0 | 4.8 | 0.00 | 1.12 | 0.84 | 99 | |
| 20260905180412 | 13 | 276 | 9.7 | 6.4 | 0.00 | 1.12 | 0.84 | 99 | |
| 20260905175412 | 13 | 294 | 4.8 | 11.3 | 0.00 | 1.09 | 0.84 | 99 | |
| 20260905174352 | 13 | 261 | 6.4 | 4.8 | 0.03 | 1.09 | 0.84 | 99 | |
| 20260905173352 | 13 | 260 | 3.2 | 11.3 | 0.08 | 1.09 | 0.84 | 99 | |
| 20260905171332 | 13 | 275 | 4.8 | 8.0 | 0.28 | 1.09 | 0.84 | 99 | |
| 20260905170312 | 13 | 257 | 3.2 | 8.0 | 0.33 | 1.09 | 0.84 | 99 | |
| 20260905165312 | 13 | 241 | 8.0 | 8.0 | 0.36 | 1.09 | 0.84 | 99 | |
| 20260905164312 | 13 | 265 | 1.6 | 6.4 | 0.36 | 1.04 | 0.79 | 99 | |
| 20260905163252 | 13 | 237 | 1.6 | 3.2 | 0.30 | 0.99 | 0.74 | 99 | |
| 20260905161232 | 14 | 253 | 3.2 | 4.8 | 0.13 | 0.97 | 0.56 | 99 | |
| 20260905160232 | 15 | 252 | 11.3 | 16.1 | 0.05 | 0.89 | 0.48 | 99 | |
| 20260905155212 | 15 | 218 | 11.3 | 14.5 | 0.03 | 0.86 | 0.46 | 99 | |
| 20260905154212 | 16 | 249 | 11.3 | 16.1 | 0.00 | 0.84 | 0.41 | 99 | |
| 20260905152152 | 16 | 279 | 1.6 | 3.2 | 0.00 | 0.84 | 0.41 | 99 | |
| 20260905150152 | 15 | 265 | 3.2 | 6.4 | 0.00 | 0.84 | 0.41 | 99 | |
| 20260905145152 | 15 | 95 | 1.6 | 3.2 | 0.00 | 0.84 | 0.41 | 99 | |
| 20260905144152 | 16 | 294 | 4.8 | 6.4 | 0.00 | 0.84 | 0.41 | 99 | |
| 20260905143132 | 17 | 138 | 1.6 | 1.6 | 0.18 | 0.84 | 0.41 | 99 | |
| 20260905142132 | 17 | 312 | 1.6 | 3.2 | 0.18 | 0.84 | 0.41 | 96 | |
| 20260905141132 | 18 | 258 | 1.6 | 3.2 | 0.18 | 0.81 | 0.38 | 99 | |
| 20260905140112 | 17 | 0 | 0.0 | 0.0 | 0.18 | 0.81 | 0.38 | 99 | |
| 20260905135112 | 16 | 265 | 1.6 | 3.2 | 0.18 | 0.81 | 0.38 | 99 | |
| 20260905134052 | 16 | 249 | 3.2 | 3.2 | 0.25 | 0.81 | 0.38 | 99 | |
| 20260905133052 | 17 | 214 | 1.6 | 1.6 | 0.20 | 0.64 | 0.23 | 99 | |
| 20260905132032 | 17 | 273 | 1.6 | 4.8 | 0.20 | 0.61 | 0.20 | 99 | |
| 20260905131032 | 18 | 291 | 1.6 | 1.6 | 0.20 | 0.61 | 0.20 | 99 | |
| 20260905130032 | 17 | 0 | 0.0 | 0.0 | 0.20 | 0.64 | 0.20 | 99 | |
| 20260905125012 | 17 | 0 | 0.0 | 0.0 | 0.20 | 0.66 | 0.20 | 99 | |
| 20260905123952 | 17 | 0 | 0.0 | 3.2 | 0.08 | 0.56 | 0.08 | 99 | |
| 20260905122952 | 17 | 0 | 0.0 | 0.0 | 0.00 | 0.48 | 0.00 | 88 | |
| 20260905121952 | 17 | 142 | 1.6 | 1.6 | 0.00 | 0.48 | 0.00 | 85 | |
| 20260905120952 | 18 | 289 | 16.1 | 25.7 | 0.00 | 0.51 | 0.00 | 73 | |
| 20260905115952 | 20 | 253 | 12.9 | 19.3 | 0.00 | 6.50 | 0.00 | 68 | |
| 20260905114952 | 20 | 321 | 8.0 | 9.7 | 0.00 | 6.50 | 0.00 | 68 | |
| 20260905112932 | 20 | 256 | 6.4 | 3.2 | 0.00 | 6.53 | 0.00 | 67 | |
| 20260905111912 | 20 | 241 | 6.4 | 14.5 | 0.00 | 6.58 | 0.00 | 71 | |
| 20260905110912 | 20 | 307 | 6.4 | 11.3 | 0.00 | 6.60 | 0.00 | 69 | |
| 20260905105852 | 20 | 296 | 16.1 | 20.9 | 0.00 | 6.60 | 0.00 | 71 | |
| 20260905104852 | 20 | 265 | 3.2 | 6.4 | 0.00 | 6.60 | 0.00 | 72 | |
| 20260905103832 | 18 | 275 | 8.0 | 14.5 | 0.00 | 6.60 | 0.00 | 76 | |
| 20260905102832 | 18 | 278 | 1.6 | 3.2 | 0.00 | 6.60 | 0.00 | 80 | |
| 20260905101832 | 18 | 234 | 6.4 | 8.0 | 0.00 | 6.60 | 0.00 | 78 | |
| 20260905095832 | 18 | 278 | 6.4 | 8.0 | 0.00 | 6.60 | 0.00 | 76 | |
| 20260905094832 | 18 | 237 | 16.1 | 19.3 | 0.00 | 6.60 | 0.00 | 78 | |
| 20260905093812 | 19 | 258 | 8.0 | 16.1 | 0.00 | 6.60 | 0.00 | 76 | |
| 20260905092812 | 19 | 248 | 6.4 | 6.4 | 0.00 | 6.60 | 0.00 | 74 | |
| 20260905091812 | 19 | 303 | 1.6 | 4.8 | 0.00 | 6.60 | 0.00 | 79 | |
| 20260905090811 | 18 | 246 | 4.8 | 6.4 | 0.00 | 6.60 | 0.00 | 78 | |
| 20260905085811 | 19 | 250 | 3.2 | 3.2 | 0.00 | 6.60 | 0.00 | 77 | |
| 20260905084812 | 18 | 310 | 11.3 | 14.5 | 0.00 | 6.60 | 0.00 | 79 | |
| 20260905082751 | 18 | 300 | 12.9 | 14.5 | 0.00 | 6.60 | 0.00 | 79 | |
| 20260905081731 | 19 | 286 | 4.8 | 11.3 | 0.00 | 6.60 | 0.00 | 82 | |
| 20260905080731 | 20 | 0 | 0.0 | 0.0 | 0.00 | 6.60 | 0.00 | 81 | |
| 20260905075711 | 18 | 246 | 1.6 | 1.6 | 0.00 | 6.60 | 0.00 | 83 | |
| 20260905074711 | 18 | 275 | 0.0 | 0.0 | 0.00 | 6.60 | 0.00 | 85 | |
| 20260905073651 | 18 | 319 | 9.7 | 6.4 | 0.00 | 6.60 | 0.00 | 84 | |
| 20260905072651 | 18 | 238 | 4.8 | 4.8 | 0.00 | 6.60 | 0.00 | 85 | |
| 20260905071631 | 18 | 277 | 8.0 | 9.7 | 0.00 | 6.60 | 0.00 | 89 | |
| 20260905070631 | 17 | 259 | 14.5 | 14.5 | 0.00 | 6.60 | 0.00 | 91 | |
| 20260905065611 | 17 | 8 | 9.7 | 19.3 | 0.00 | 6.60 | 0.00 | 98 | |
| 20260905064611 | 16 | 249 | 3.2 | 6.4 | 0.00 | 6.60 | 0.00 | 99 | |
| 20260905063551 | 16 | 281 | 9.7 | 14.5 | 0.00 | 6.60 | 0.00 | 99 | |
| 20260905062551 | 17 | 271 | 4.8 | 6.4 | 0.00 | 6.60 | 0.00 | 99 | |
| 20260905060531 | 16 | 266 | 12.9 | 8.0 | 0.00 | 6.63 | 0.00 | 99 | |
| 20260905055531 | 16 | 235 | 6.4 | 20.9 | 0.00 | 6.63 | 0.00 | 99 | |
| 20260905054511 | 15 | 264 | 9.7 | 11.3 | 0.00 | 6.63 | 0.00 | 99 | |
| 20260905053511 | 15 | 240 | 8.0 | 11.3 | 0.00 | 6.63 | 0.00 | 99 | |
| 20260905052451 | 15 | 270 | 11.3 | 17.7 | 0.00 | 6.63 | 0.00 | 99 | |
| 20260905051451 | 15 | 243 | 8.0 | 11.3 | 0.00 | 6.63 | 0.00 | 99 | |
| 20260905050431 | 15 | 280 | 9.7 | 12.9 | 0.00 | 6.63 | 0.00 | 99 | |
| 20260905044431 | 14 | 265 | 6.4 | 12.9 | 0.00 | 6.63 | 0.00 | 99 | |
| 20260905043411 | 14 | 298 | 9.7 | 9.7 | 0.00 | 6.63 | 0.00 | 99 | |
| 20260905042411 | 14 | 271 | 6.4 | 8.0 | 0.00 | 6.63 | 0.00 | 99 | |
| 20260905041351 | 14 | 287 | 8.0 | 11.3 | 0.00 | 6.63 | 0.00 | 99 | |
| 20260905040351 | 14 | 207 | 8.0 | 14.5 | 0.00 | 6.63 | 0.00 | 99 | |
| 20260905035331 | 14 | 274 | 3.2 | 8.0 | 0.00 | 6.63 | 0.00 | 99 | |
| 20260905034331 | 14 | 318 | 6.4 | 11.3 | 0.00 | 6.63 | 0.00 | 99 | |
| 20260905033311 | 15 | 266 | 4.8 | 6.4 | 0.00 | 6.63 | 0.00 | 99 | |
| 20260905032311 | 15 | 299 | 6.4 | 6.4 | 0.00 | 6.63 | 0.00 | 99 | |
| 20260905031311 | 15 | 251 | 3.2 | 8.0 | 0.00 | 6.63 | 0.00 | 99 | |
| 20260905030251 | 15 | 241 | 8.0 | 8.0 | 0.00 | 6.63 | 0.00 | 99 | |
| 20260905025251 | 15 | 236 | 8.0 | 16.1 | 0.00 | 6.63 | 0.00 | 99 | |
| 20260905023231 | 15 | 266 | 4.8 | 6.4 | 0.00 | 6.63 | 0.00 | 99 | |
| 20260905022211 | 15 | 311 | 11.3 | 17.7 | 0.00 | 6.63 | 0.00 | 99 | |
| 20260905021211 | 15 | 285 | 4.8 | 9.7 | 0.00 | 6.63 | 0.00 | 99 | |
| 20260905020211 | 15 | 230 | 8.0 | 9.7 | 0.00 | 6.63 | 0.00 | 99 | |
| 20260905015151 | 15 | 270 | 8.0 | 11.3 | 0.00 | 6.63 | 0.00 | 99 | |
| 20260905014151 | 15 | 8 | 6.4 | 12.9 | 0.00 | 6.63 | 0.00 | 99 | |
| 20260905012131 | 15 | 227 | 1.6 | 3.2 | 0.00 | 6.63 | 0.00 | 99 | |
| 20260905011131 | 15 | 249 | 1.6 | 1.6 | 0.00 | 6.63 | 0.00 | 99 | |
| 20260905010131 | 15 | 308 | 0.0 | 3.2 | 0.00 | 6.63 | 0.00 | 99 | |
| 20260905005131 | 15 | 223 | 3.2 | 6.4 | 0.00 | 6.63 | 0.00 | 99 | |
| 20260905004131 | 15 | 60 | 1.6 | 1.6 | 0.00 | 6.63 | 0.00 | 99 | |
| 20260905003111 | 15 | 242 | 1.6 | 6.4 | 0.00 | 6.63 | 0.00 | 99 | |
| 20260905002111 | 15 | 227 | 0.0 | 1.6 | 0.00 | 6.63 | 0.00 | 99 | |
| 20260905001051 | 16 | 162 | 3.2 | 6.4 | 0.00 | 6.63 | 0.00 | 99 | |
| 20260905000051 | 16 | 222 | 1.6 | 3.2 | 0.00 | 6.63 | 0.00 | 99 | |
| 20260904235031 | 16 | 244 | 0.0 | 0.0 | 0.00 | 6.63 | 0.00 | 99 | |
| 20260904234031 | 16 | 286 | 1.6 | 3.2 | 0.00 | 6.63 | 0.00 | 99 | |
| 20260904233031 | 16 | 258 | 4.8 | 0.0 | 0.00 | 6.63 | 0.00 | 99 | |
| 20260904232010 | 16 | 264 | 1.6 | 1.6 | 0.00 | 6.63 | 0.00 | 99 | |
| 20260904231010 | 16 | 262 | 4.8 | 1.6 | 0.00 | 6.63 | 0.00 | 99 | |
| 20260904230010 | 16 | 282 | 4.8 | 4.8 | 0.00 | 6.63 | 0.00 | 99 | |
| 20260904225011 | 16 | 212 | 8.0 | 11.3 | 0.00 | 6.63 | 0.00 | 99 | |
| 20260904224010 | 16 | 229 | 4.8 | 4.8 | 0.00 | 6.63 | 0.00 | 99 | |
| 20260904221950 | 17 | 263 | 4.8 | 6.4 | 0.03 | 6.63 | 0.00 | 99 | |
| 20260904220950 | 17 | 292 | 8.0 | 11.3 | 0.20 | 6.63 | 0.00 | 99 | |
| 20260904215930 | 17 | 248 | 4.8 | 6.4 | 0.23 | 6.63 | 6.63 | 99 | |
| 20260904214930 | 17 | 226 | 1.6 | 0.0 | 0.25 | 6.63 | 6.63 | 99 | |
| 20260904213910 | 17 | 280 | 0.0 | 1.6 | 0.25 | 6.63 | 6.63 | 99 | |
| 20260904212910 | 17 | 261 | 1.6 | 6.4 | 0.25 | 6.63 | 6.63 | 99 |